createdAt,value
2017-07-23T00:01:35.167Z,5.13
2017-07-23T00:04:02.683Z,3.77
2017-07-23T00:06:30.138Z,4.07
2017-07-23T00:08:57.607Z,4.23
2017-07-23T00:11:25.068Z,4.23
2017-07-23T00:13:52.525Z,4.13
2017-07-23T00:16:20.137Z,4.20
2017-07-23T00:18:47.612Z,3.43
2017-07-23T00:21:15.152Z,3.23
2017-07-23T00:23:42.660Z,3.73
2017-07-23T00:26:10.118Z,3.50
2017-07-23T00:28:37.653Z,4.07
2017-07-23T00:31:05.105Z,3.60
2017-07-23T00:33:32.586Z,4.00
2017-07-23T00:36:00.139Z,3.87
2017-07-23T00:38:27.600Z,3.63
2017-07-23T00:40:55.063Z,4.67
2017-07-23T00:43:22.506Z,3.90
2017-07-23T00:45:50.053Z,3.10
2017-07-23T00:48:17.524Z,4.13
2017-07-23T00:50:44.985Z,3.87
2017-07-23T00:53:12.421Z,3.87
2017-07-23T00:55:39.989Z,4.20
2017-07-23T00:58:07.461Z,3.60
2017-07-23T01:00:34.974Z,3.90
2017-07-23T01:03:02.466Z,3.97
2017-07-23T01:05:29.934Z,3.80
2017-07-23T01:07:57.469Z,3.73
2017-07-23T01:10:25.400Z,3.37
2017-07-23T01:12:53.037Z,3.80
2017-07-23T01:15:20.468Z,3.67
2017-07-23T01:17:47.931Z,3.30
2017-07-23T01:20:15.383Z,3.07
2017-07-23T01:22:42.950Z,3.17
2017-07-23T01:25:10.391Z,3.70
2017-07-23T01:27:37.941Z,3.40
2017-07-23T01:30:05.392Z,3.80
2017-07-23T01:32:32.865Z,3.80
2017-07-23T01:35:00.310Z,3.80
2017-07-23T01:37:27.765Z,3.80
2017-07-23T01:39:55.226Z,3.37
2017-07-23T01:42:22.697Z,3.97
2017-07-23T01:44:50.133Z,3.50
2017-07-23T01:47:17.610Z,3.73
2017-07-23T01:49:45.158Z,3.13
2017-07-23T01:52:12.626Z,3.40
2017-07-23T01:54:40.177Z,3.43
2017-07-23T01:57:07.658Z,5.07
2017-07-23T01:59:35.109Z,4.10
2017-07-23T02:02:02.653Z,3.97
2017-07-23T02:04:30.162Z,3.90
2017-07-23T02:06:57.602Z,4.10
2017-07-23T02:09:25.079Z,4.30
2017-07-23T02:11:52.565Z,3.93
2017-07-23T02:14:20.022Z,3.80
2017-07-23T02:16:47.495Z,3.83
2017-07-23T02:19:15.003Z,4.17
2017-07-23T02:21:42.461Z,3.50
2017-07-23T02:24:09.978Z,3.70
2017-07-23T02:26:37.417Z,5.17
2017-07-23T02:29:04.891Z,4.93
2017-07-23T02:31:32.386Z,3.83
2017-07-23T02:33:59.878Z,4.20
2017-07-23T02:36:27.309Z,3.60
2017-07-23T02:38:54.803Z,4.50
2017-07-23T02:41:22.316Z,3.80
2017-07-23T02:43:49.749Z,3.20
2017-07-23T02:46:17.206Z,3.83
2017-07-23T02:48:44.722Z,3.30
2017-07-23T02:51:12.179Z,4.27
2017-07-23T02:53:39.609Z,4.17
2017-07-23T02:56:07.082Z,3.03
2017-07-23T02:58:34.518Z,3.67
2017-07-23T03:01:02.016Z,4.63
2017-07-23T03:03:29.488Z,3.93
2017-07-23T03:05:57.027Z,3.57
2017-07-23T03:08:24.467Z,4.10
2017-07-23T03:10:51.936Z,3.80
2017-07-23T03:13:19.621Z,4.00
2017-07-23T03:15:47.073Z,3.50
2017-07-23T03:18:14.624Z,3.37
2017-07-23T03:20:42.109Z,4.30
2017-07-23T03:23:09.537Z,4.10
2017-07-23T03:25:36.989Z,3.40
2017-07-23T03:28:04.535Z,4.40
2017-07-23T03:30:32.008Z,4.00
2017-07-23T03:32:59.479Z,4.03
2017-07-23T03:35:26.913Z,3.60
2017-07-23T03:37:54.466Z,3.40
2017-07-23T03:40:21.943Z,4.50
2017-07-23T03:42:49.401Z,4.20
2017-07-23T03:45:17.001Z,4.40
2017-07-23T03:47:44.473Z,3.93
2017-07-23T03:50:11.917Z,4.23
2017-07-23T03:52:39.369Z,4.10
2017-07-23T03:55:06.861Z,3.93
2017-07-23T03:57:34.317Z,3.90
2017-07-23T04:00:01.750Z,3.53
2017-07-23T04:05:22.813Z,3.40
2017-07-23T04:07:50.414Z,4.13
2017-07-23T04:10:17.931Z,3.60
2017-07-23T04:12:45.490Z,3.77
2017-07-23T04:15:12.947Z,5.10
2017-07-23T04:17:40.396Z,3.87
2017-07-23T04:20:08.422Z,3.70
2017-07-23T04:22:35.869Z,3.70
2017-07-23T04:25:03.335Z,3.50
2017-07-23T04:27:30.765Z,4.23
2017-07-23T04:29:58.217Z,3.40
2017-07-23T04:32:25.761Z,4.13
2017-07-23T04:34:53.224Z,3.77
2017-07-23T04:37:20.767Z,3.20
2017-07-23T04:39:48.322Z,3.50
2017-07-23T04:42:15.768Z,4.40
2017-07-23T04:44:43.221Z,4.10
2017-07-23T04:47:10.681Z,3.80
2017-07-23T04:49:38.243Z,3.10
2017-07-23T04:52:05.684Z,3.40
2017-07-23T04:54:33.157Z,4.20
2017-07-23T04:57:00.616Z,3.00
2017-07-23T04:59:28.073Z,3.40
2017-07-23T05:01:55.525Z,3.30
2017-07-23T05:04:22.985Z,3.70
2017-07-23T05:06:50.552Z,2.87
2017-07-23T05:09:17.985Z,2.97
2017-07-23T05:11:45.456Z,2.30
2017-07-23T05:14:12.909Z,1.70
2017-07-23T05:16:40.470Z,3.20
2017-07-23T05:19:07.934Z,2.30
2017-07-23T05:21:35.391Z,2.40
2017-07-23T05:24:02.838Z,1.70
2017-07-23T05:26:30.401Z,2.50
2017-07-23T05:28:57.867Z,2.50
2017-07-23T05:31:26.297Z,2.30
2017-07-23T05:33:53.748Z,2.17
2017-07-23T05:36:21.201Z,2.70
2017-07-23T05:38:48.634Z,2.00
2017-07-23T05:41:16.153Z,1.87
2017-07-23T05:43:43.965Z,1.70
2017-07-23T05:46:11.402Z,1.90
2017-07-23T05:48:38.858Z,2.00
2017-07-23T05:51:06.425Z,1.93
2017-07-23T05:53:33.905Z,2.47
2017-07-23T05:56:01.352Z,2.23
2017-07-23T05:58:28.807Z,2.37
2017-07-23T06:00:56.251Z,2.60
2017-07-23T06:03:23.792Z,1.90
2017-07-23T06:05:51.231Z,2.60
2017-07-23T06:08:18.967Z,2.17
2017-07-23T06:10:46.464Z,2.10
2017-07-23T06:13:13.948Z,1.93
2017-07-23T06:15:41.393Z,2.07
2017-07-23T06:18:08.885Z,2.73
2017-07-23T06:20:36.661Z,1.97
2017-07-23T06:23:04.141Z,2.20
2017-07-23T06:25:31.613Z,2.10
2017-07-23T06:27:59.042Z,2.60
2017-07-23T06:30:26.529Z,1.77
2017-07-23T06:32:54.068Z,1.80
2017-07-23T06:35:21.518Z,1.63
2017-07-23T06:37:48.964Z,2.33
2017-07-23T06:40:16.652Z,1.70
2017-07-23T06:42:44.201Z,1.80
2017-07-23T06:45:11.677Z,1.53
2017-07-23T06:47:39.236Z,2.27
2017-07-23T06:50:06.689Z,2.27
2017-07-23T06:52:34.117Z,2.20
2017-07-23T06:55:01.593Z,2.10
2017-07-23T06:57:29.021Z,2.03
2017-07-23T06:59:56.500Z,1.97
2017-07-23T07:02:23.942Z,2.30
2017-07-23T07:04:51.517Z,2.23
2017-07-23T07:07:18.977Z,2.77
2017-07-23T07:09:46.433Z,2.37
2017-07-23T07:12:13.929Z,2.90
2017-07-23T07:14:41.445Z,2.80
2017-07-23T07:17:09.002Z,3.00
2017-07-23T07:19:36.433Z,2.50
2017-07-23T07:22:03.914Z,2.13
2017-07-23T07:24:31.384Z,3.03
2017-07-23T07:26:58.940Z,2.50
2017-07-23T07:29:26.390Z,1.63
2017-07-23T07:31:53.843Z,1.90
2017-07-23T07:34:21.329Z,1.63
2017-07-23T07:36:48.793Z,1.73
2017-07-23T07:39:16.313Z,1.70
2017-07-23T07:41:43.776Z,1.83
2017-07-23T07:44:11.238Z,2.13
2017-07-23T07:46:38.819Z,1.83
2017-07-23T07:49:06.253Z,2.03
2017-07-23T07:51:33.811Z,1.47
2017-07-23T07:54:01.272Z,1.60
2017-07-23T07:56:28.750Z,1.57
2017-07-23T07:58:56.197Z,1.53
2017-07-23T08:01:23.674Z,2.10
2017-07-23T08:03:51.189Z,1.27
2017-07-23T08:06:18.635Z,1.50
2017-07-23T08:08:46.090Z,1.40
2017-07-23T08:11:13.559Z,1.37
2017-07-23T08:13:41.025Z,1.80
2017-07-23T08:16:08.487Z,1.57
2017-07-23T08:18:36.055Z,2.30
2017-07-23T08:21:03.589Z,2.10
2017-07-23T08:23:31.086Z,1.13
2017-07-23T08:25:58.527Z,2.13
2017-07-23T08:28:26.068Z,1.67
2017-07-23T08:30:53.531Z,1.63
2017-07-23T08:33:21.181Z,1.87
2017-07-23T08:35:48.648Z,2.27
2017-07-23T08:38:16.115Z,1.37
2017-07-23T08:40:43.557Z,1.40
2017-07-23T08:43:11.005Z,1.50
2017-07-23T08:45:38.468Z,1.63
2017-07-23T08:48:05.909Z,1.23
2017-07-23T08:50:33.361Z,1.33
2017-07-23T08:53:00.834Z,1.60
2017-07-23T08:55:28.299Z,1.20
2017-07-23T08:57:55.738Z,1.17
2017-07-23T09:00:23.301Z,1.13
2017-07-23T09:02:50.761Z,0.67
2017-07-23T09:05:18.227Z,1.63
2017-07-23T09:07:45.666Z,0.87
2017-07-23T09:10:13.235Z,0.87
2017-07-23T09:12:40.680Z,1.00
2017-07-23T09:15:08.240Z,1.10
2017-07-23T09:17:35.670Z,1.30
2017-07-23T09:20:03.337Z,1.17
2017-07-23T09:22:30.822Z,1.00
2017-07-23T09:24:58.275Z,1.83
2017-07-23T09:27:25.837Z,1.00
2017-07-23T09:29:53.293Z,1.30
2017-07-23T09:32:20.741Z,1.03
2017-07-23T09:34:48.270Z,1.40
2017-07-23T09:37:15.776Z,1.33
2017-07-23T09:39:43.213Z,1.17
2017-07-23T09:42:10.687Z,1.13
2017-07-23T09:44:38.125Z,1.60
2017-07-23T09:47:05.590Z,1.47
2017-07-23T09:49:33.029Z,1.23
2017-07-23T09:52:00.481Z,1.40
2017-07-23T09:54:27.980Z,1.10
2017-07-23T09:56:55.442Z,1.37
2017-07-23T09:59:22.869Z,2.10
2017-07-23T10:01:50.326Z,0.90
2017-07-23T10:04:17.759Z,1.17
2017-07-23T10:06:45.213Z,2.20
2017-07-23T10:09:12.677Z,1.33
2017-07-23T10:11:40.181Z,0.93
2017-07-23T10:14:07.718Z,1.20
2017-07-23T10:16:35.145Z,1.00
2017-07-23T10:19:02.597Z,1.03
2017-07-23T10:21:30.037Z,1.10
2017-07-23T10:23:57.497Z,0.90
2017-07-23T10:26:25.877Z,1.60
2017-07-23T10:28:53.378Z,1.00
2017-07-23T10:31:20.813Z,1.20
2017-07-23T10:33:48.269Z,1.37
2017-07-23T10:36:15.725Z,1.33
2017-07-23T10:38:43.219Z,0.70
2017-07-23T10:41:10.756Z,1.67
2017-07-23T10:43:38.206Z,0.90
2017-07-23T10:46:05.650Z,1.23
2017-07-23T10:48:33.128Z,0.93
2017-07-23T10:51:00.597Z,1.10
2017-07-23T10:53:28.079Z,13.90
2017-07-23T10:55:55.596Z,3.97
2017-07-23T10:58:23.050Z,2.50
2017-07-23T11:00:50.501Z,2.40
2017-07-23T11:03:17.994Z,2.33
2017-07-23T11:05:46.566Z,0.80
2017-07-23T11:08:14.116Z,1.27
2017-07-23T11:10:41.576Z,1.00
2017-07-23T11:13:09.047Z,0.60
2017-07-23T11:15:36.646Z,0.87
2017-07-23T11:18:04.100Z,1.53
2017-07-23T11:20:31.602Z,0.97
2017-07-23T11:22:59.045Z,0.80
2017-07-23T11:25:26.609Z,0.87
2017-07-23T11:27:54.329Z,0.97
2017-07-23T11:30:21.841Z,1.10
2017-07-23T11:32:49.381Z,1.77
2017-07-23T11:35:16.834Z,1.73
2017-07-23T11:37:56.099Z,2.23
2017-07-23T11:40:23.637Z,1.13
2017-07-23T11:42:51.099Z,0.97
2017-07-23T11:45:18.555Z,0.67
2017-07-23T11:47:46.116Z,1.00
2017-07-23T11:50:13.553Z,0.60
2017-07-23T11:52:41.045Z,0.60
2017-07-23T11:55:08.477Z,1.20
2017-07-23T11:57:35.944Z,0.73
2017-07-23T12:00:03.399Z,0.80
2017-07-23T12:02:30.956Z,1.00
2017-07-23T12:04:58.799Z,1.50
2017-07-23T12:07:26.271Z,0.83
2017-07-23T12:09:53.739Z,0.67
2017-07-23T12:12:21.196Z,0.60
2017-07-23T12:14:48.755Z,1.00
2017-07-23T12:17:16.469Z,0.80
2017-07-23T12:19:43.914Z,1.13
2017-07-23T12:22:11.422Z,1.13
2017-07-23T12:24:38.883Z,0.97
2017-07-23T12:27:06.342Z,1.03
2017-07-23T12:29:33.911Z,1.30
2017-07-23T12:32:01.445Z,1.27
2017-07-23T12:34:28.934Z,0.87
2017-07-23T12:36:56.448Z,0.73
2017-07-23T12:39:23.921Z,1.23
2017-07-23T12:41:51.646Z,1.00
2017-07-23T12:44:19.149Z,0.77
2017-07-23T12:46:46.585Z,0.67
2017-07-23T12:49:14.054Z,0.70
2017-07-23T12:51:41.482Z,0.70
2017-07-23T12:54:08.979Z,1.00
2017-07-23T12:56:36.536Z,0.93
2017-07-23T12:59:04.022Z,1.07
2017-07-23T13:01:31.537Z,1.30
2017-07-23T13:03:59.008Z,1.10
2017-07-23T13:06:26.518Z,0.70
2017-07-23T13:08:54.023Z,1.33
2017-07-23T13:11:21.472Z,1.10
2017-07-23T13:13:48.909Z,1.00
2017-07-23T13:16:16.446Z,1.20
2017-07-23T13:18:43.923Z,0.60
2017-07-23T13:21:11.381Z,1.23
2017-07-23T13:23:38.853Z,0.80
2017-07-23T13:26:06.405Z,1.03
2017-07-23T13:28:33.931Z,1.00
2017-07-23T13:31:01.429Z,0.90
2017-07-23T13:33:28.861Z,0.80
2017-07-23T13:35:56.337Z,0.80
2017-07-23T13:38:23.785Z,0.97
2017-07-23T13:40:51.247Z,1.27
2017-07-23T13:43:18.716Z,0.70
2017-07-23T13:45:46.291Z,1.30
2017-07-23T13:48:13.730Z,0.80
2017-07-23T13:50:41.229Z,0.90
2017-07-23T13:53:08.687Z,0.73
2017-07-23T13:55:36.202Z,1.10
2017-07-23T13:58:03.654Z,0.90
2017-07-23T14:00:31.109Z,0.90
2017-07-23T14:02:58.562Z,0.70
2017-07-23T14:05:25.993Z,0.90
2017-07-23T14:07:53.692Z,1.00
2017-07-23T14:10:21.138Z,0.70
2017-07-23T14:12:48.597Z,1.03
2017-07-23T14:15:16.037Z,0.80
2017-07-23T14:17:43.518Z,1.00
2017-07-23T14:20:10.960Z,0.87
2017-07-23T14:22:38.409Z,0.93
2017-07-23T14:25:05.874Z,0.80
2017-07-23T14:27:33.329Z,1.00
2017-07-23T14:30:00.774Z,1.30
2017-07-23T14:32:28.249Z,1.10
2017-07-23T14:34:55.722Z,0.63
2017-07-23T14:37:23.181Z,1.23
2017-07-23T14:39:50.622Z,1.30
2017-07-23T14:42:18.102Z,0.97
2017-07-23T14:44:45.629Z,0.80
2017-07-23T14:47:13.101Z,0.60
2017-07-23T14:49:40.571Z,1.60
2017-07-23T14:52:08.094Z,1.90
2017-07-23T14:54:35.529Z,1.40
2017-07-23T14:57:03.006Z,1.10
2017-07-23T14:59:30.442Z,1.63
2017-07-23T15:01:57.926Z,0.80
2017-07-23T15:04:25.381Z,0.87
2017-07-23T15:06:52.853Z,1.23
2017-07-23T15:09:21.425Z,0.97
2017-07-23T15:11:48.885Z,1.17
2017-07-23T15:14:16.356Z,1.20
2017-07-23T15:16:43.814Z,1.30
2017-07-23T15:19:11.345Z,1.53
2017-07-23T15:21:38.796Z,0.93
2017-07-23T15:24:06.250Z,1.00
2017-07-23T15:26:33.695Z,0.80
2017-07-23T15:29:01.153Z,1.10
2017-07-23T15:31:28.642Z,1.53
2017-07-23T15:33:56.212Z,1.13
2017-07-23T15:36:23.650Z,1.20
2017-07-23T15:38:51.105Z,0.80
2017-07-23T15:41:18.567Z,0.73
2017-07-23T15:43:46.066Z,0.70
2017-07-23T15:46:13.520Z,1.70
2017-07-23T15:48:41.050Z,0.97
2017-07-23T15:51:08.600Z,1.43
2017-07-23T15:53:36.046Z,1.13
2017-07-23T15:56:03.515Z,0.77
2017-07-23T15:58:30.976Z,1.17
2017-07-23T16:00:58.433Z,1.10
2017-07-23T16:03:25.878Z,1.13
2017-07-23T16:05:53.345Z,0.60
2017-07-23T16:08:20.791Z,0.97
2017-07-23T16:10:48.271Z,1.23
2017-07-23T16:13:15.719Z,1.60
2017-07-23T16:15:43.253Z,0.50
2017-07-23T16:18:10.725Z,1.00
2017-07-23T16:20:38.186Z,0.70
2017-07-23T16:23:05.631Z,0.80
2017-07-23T16:25:33.201Z,1.17
2017-07-23T16:28:00.642Z,1.23
2017-07-23T16:30:28.076Z,1.00
2017-07-23T16:32:55.553Z,0.93
2017-07-23T16:35:22.998Z,0.80
2017-07-23T16:37:50.569Z,1.20
2017-07-23T16:40:18.004Z,0.70
2017-07-23T16:42:45.492Z,1.13
2017-07-23T16:45:13.110Z,0.90
2017-07-23T16:47:40.598Z,1.07
2017-07-23T16:50:08.048Z,0.80
2017-07-23T16:52:35.541Z,1.77
2017-07-23T16:55:03.006Z,1.80
2017-07-23T16:57:30.526Z,0.80
2017-07-23T16:59:57.989Z,0.60
2017-07-23T17:02:25.441Z,1.27
2017-07-23T17:04:52.881Z,1.10
2017-07-23T17:07:20.349Z,1.20
2017-07-23T17:09:47.798Z,0.83
2017-07-23T17:12:15.259Z,0.90
2017-07-23T17:14:42.697Z,1.83
2017-07-23T17:17:10.277Z,0.90
2017-07-23T17:19:37.717Z,0.77
2017-07-23T17:22:05.182Z,0.80
2017-07-23T17:24:32.637Z,1.53
2017-07-23T17:27:00.122Z,0.80
2017-07-23T17:29:27.789Z,1.13
2017-07-23T17:31:55.235Z,0.87
2017-07-23T17:34:22.808Z,0.90
2017-07-23T17:36:50.343Z,0.80
2017-07-23T17:39:17.822Z,0.93
2017-07-23T17:41:45.368Z,0.87
2017-07-23T17:44:12.917Z,0.80
2017-07-23T17:46:40.468Z,1.00
2017-07-23T17:49:08.024Z,0.57
2017-07-23T17:51:35.488Z,1.43
2017-07-23T17:54:02.937Z,0.90
2017-07-23T17:56:30.384Z,0.63
2017-07-23T17:58:57.857Z,1.00
2017-07-23T18:01:25.298Z,0.70
2017-07-23T18:03:52.804Z,1.00
2017-07-23T18:06:22.043Z,0.70
2017-07-23T18:08:49.488Z,0.70
2017-07-23T18:11:16.943Z,0.80
2017-07-23T18:13:44.579Z,1.30
2017-07-23T18:16:12.099Z,0.90
2017-07-23T18:18:39.547Z,1.00
2017-07-23T18:21:07.109Z,0.80
2017-07-23T18:23:34.586Z,0.73
2017-07-23T18:26:02.142Z,0.90
2017-07-23T18:28:29.777Z,0.93
2017-07-23T18:30:57.314Z,0.77
2017-07-23T18:33:24.831Z,0.80
2017-07-23T18:35:52.313Z,0.70
2017-07-23T18:38:19.791Z,1.37
2017-07-23T18:40:47.385Z,0.73
2017-07-23T18:43:14.849Z,0.80
2017-07-23T18:45:42.403Z,0.80
2017-07-23T18:48:09.829Z,1.23
2017-07-23T18:50:37.330Z,1.23
2017-07-23T18:53:05.189Z,0.60
2017-07-23T18:55:33.088Z,1.37
2017-07-23T18:58:00.550Z,1.20
2017-07-23T19:00:28.057Z,1.00
2017-07-23T19:02:55.523Z,1.37
2017-07-23T19:05:23.012Z,0.93
2017-07-23T19:07:50.468Z,0.70
2017-07-23T19:10:17.927Z,1.30
2017-07-23T19:12:45.400Z,0.90
2017-07-23T19:15:12.838Z,0.90
2017-07-23T19:17:40.291Z,0.90
2017-07-23T19:20:07.757Z,0.60
2017-07-23T19:22:35.277Z,0.97
2017-07-23T19:25:02.737Z,1.33
2017-07-23T19:27:30.189Z,1.40
2017-07-23T19:29:57.636Z,0.83
2017-07-23T19:32:25.195Z,1.00
2017-07-23T19:34:52.625Z,1.43
2017-07-23T19:37:20.099Z,1.20
2017-07-23T19:39:47.566Z,1.20
2017-07-23T19:42:15.049Z,0.80
2017-07-23T19:44:42.491Z,1.10
2017-07-23T19:47:09.925Z,1.10
2017-07-23T19:49:37.406Z,0.83
2017-07-23T19:52:04.911Z,0.70
2017-07-23T19:54:32.370Z,0.80
2017-07-23T19:56:59.801Z,1.03
2017-07-23T19:59:27.328Z,1.07
2017-07-23T20:01:54.777Z,0.97
2017-07-23T20:04:22.395Z,1.20
2017-07-23T20:06:49.846Z,1.43
2017-07-23T20:09:17.368Z,0.70
2017-07-23T20:11:44.927Z,1.27
2017-07-23T20:14:12.378Z,1.00
2017-07-23T20:16:39.927Z,0.90
2017-07-23T20:19:07.474Z,1.03
2017-07-23T20:21:35.467Z,0.90
2017-07-23T20:24:02.897Z,0.80
2017-07-23T20:26:30.399Z,1.57
2017-07-23T20:28:57.833Z,0.87
2017-07-23T20:31:25.289Z,1.43
2017-07-23T20:33:52.765Z,1.30
2017-07-23T20:36:20.247Z,1.20
2017-07-23T20:38:47.707Z,0.97
2017-07-23T20:41:15.201Z,1.00
2017-07-23T20:43:42.657Z,0.70
2017-07-23T20:46:10.114Z,0.87
2017-07-23T20:48:37.582Z,0.90
2017-07-23T20:51:05.125Z,0.90
2017-07-23T20:53:32.600Z,0.93
2017-07-23T20:56:00.062Z,1.73
2017-07-23T20:58:27.717Z,0.70
2017-07-23T21:00:55.173Z,1.07
2017-07-23T21:03:22.730Z,0.90
2017-07-23T21:05:50.218Z,1.50
2017-07-23T21:08:17.653Z,1.13
2017-07-23T21:10:45.093Z,1.00
2017-07-23T21:13:12.641Z,1.30
2017-07-23T21:15:40.097Z,1.50
2017-07-23T21:18:07.667Z,0.87
2017-07-23T21:20:35.118Z,0.70
2017-07-23T21:23:02.990Z,1.00
2017-07-23T21:25:30.442Z,1.27
2017-07-23T21:27:57.940Z,1.47
2017-07-23T21:30:25.458Z,1.23
2017-07-23T21:32:53.024Z,1.20
2017-07-23T21:35:21.123Z,1.03
2017-07-23T21:37:48.655Z,0.80
2017-07-23T21:40:16.084Z,1.13
2017-07-23T21:42:43.557Z,0.90
2017-07-23T21:45:11.013Z,0.90
2017-07-23T21:47:38.866Z,1.50
2017-07-23T21:50:06.335Z,1.07
2017-07-23T21:52:33.806Z,1.00
2017-07-23T21:55:01.265Z,0.60
2017-07-23T21:57:28.707Z,1.80
2017-07-23T21:59:56.433Z,1.97
2017-07-23T22:02:23.926Z,1.37
2017-07-23T22:04:51.397Z,1.10
2017-07-23T22:07:18.829Z,0.90
2017-07-23T22:09:46.281Z,1.10
2017-07-23T22:12:14.808Z,1.10
2017-07-23T22:14:42.296Z,0.97
2017-07-23T22:17:09.728Z,1.37
2017-07-23T22:19:37.174Z,0.87
2017-07-23T22:22:04.642Z,0.87
2017-07-23T22:24:32.954Z,0.80
2017-07-23T22:27:00.419Z,1.27
2017-07-23T22:29:27.853Z,0.80
2017-07-23T22:31:55.405Z,0.77
2017-07-23T22:34:22.842Z,1.10
2017-07-23T22:36:50.485Z,1.10
2017-07-23T22:39:17.932Z,0.93
2017-07-23T22:41:45.482Z,1.63
2017-07-23T22:44:12.971Z,0.97
2017-07-23T22:46:40.437Z,1.23
2017-07-23T22:49:07.881Z,0.97
2017-07-23T22:51:35.419Z,1.10
2017-07-23T22:54:02.929Z,2.10
2017-07-23T22:56:30.397Z,0.73
2017-07-23T22:58:57.877Z,1.17
2017-07-23T23:01:25.343Z,1.40
2017-07-23T23:03:52.793Z,1.00
2017-07-23T23:06:20.250Z,0.67
2017-07-23T23:08:47.729Z,0.90
2017-07-23T23:11:15.192Z,0.77
2017-07-23T23:13:42.719Z,1.07
2017-07-23T23:16:10.179Z,1.27
2017-07-23T23:18:37.744Z,1.13
2017-07-23T23:21:05.189Z,0.93
2017-07-23T23:23:32.641Z,1.17
2017-07-23T23:26:00.101Z,1.00
2017-07-23T23:28:27.584Z,1.70
2017-07-23T23:30:55.113Z,1.07
2017-07-23T23:33:22.686Z,0.77
2017-07-23T23:35:50.121Z,1.20
2017-07-23T23:38:17.608Z,0.83
2017-07-23T23:40:45.980Z,0.80
2017-07-23T23:43:13.541Z,0.73
2017-07-23T23:45:40.995Z,0.87
2017-07-23T23:48:08.449Z,1.60
2017-07-23T23:50:35.998Z,1.50
2017-07-23T23:53:03.468Z,1.23
2017-07-23T23:55:30.929Z,0.97
2017-07-23T23:57:58.361Z,1.57
